sensor_id;sensor_type;location;lat;lon;timestamp;P1;durP1;ratioP1;P2;durP2;ratioP2
57441;SDS011;43284;47.042;15.498;2023-07-09T00:00:49;6.95;;;4.45;;
57441;SDS011;43284;47.042;15.498;2023-07-09T00:03:15;6.85;;;4.85;;
57441;SDS011;43284;47.042;15.498;2023-07-09T00:05:42;8.60;;;4.47;;
57441;SDS011;43284;47.042;15.498;2023-07-09T00:08:29;7.15;;;4.65;;
57441;SDS011;43284;47.042;15.498;2023-07-09T00:10:56;6.88;;;4.70;;
57441;SDS011;43284;47.042;15.498;2023-07-09T00:13:23;8.07;;;4.97;;
57441;SDS011;43284;47.042;15.498;2023-07-09T00:15:50;7.35;;;4.53;;
57441;SDS011;43284;47.042;15.498;2023-07-09T00:18:17;8.98;;;4.93;;
57441;SDS011;43284;47.042;15.498;2023-07-09T00:20:42;9.80;;;5.13;;
57441;SDS011;43284;47.042;15.498;2023-07-09T00:23:11;7.55;;;4.65;;
57441;SDS011;43284;47.042;15.498;2023-07-09T00:25:41;11.13;;;5.00;;
57441;SDS011;43284;47.042;15.498;2023-07-09T00:28:18;11.25;;;5.18;;
57441;SDS011;43284;47.042;15.498;2023-07-09T00:30:45;6.80;;;4.13;;
57441;SDS011;43284;47.042;15.498;2023-07-09T00:33:12;8.13;;;4.80;;
57441;SDS011;43284;47.042;15.498;2023-07-09T00:35:41;11.00;;;4.68;;
57441;SDS011;43284;47.042;15.498;2023-07-09T00:41:12;9.00;;;4.65;;
57441;SDS011;43284;47.042;15.498;2023-07-09T00:43:42;8.38;;;4.97;;
57441;SDS011;43284;47.042;15.498;2023-07-09T00:49:01;7.43;;;4.85;;
57441;SDS011;43284;47.042;15.498;2023-07-09T00:51:33;7.57;;;4.22;;
57441;SDS011;43284;47.042;15.498;2023-07-09T00:54:10;9.20;;;5.05;;
57441;SDS011;43284;47.042;15.498;2023-07-09T00:56:45;9.95;;;4.88;;
57441;SDS011;43284;47.042;15.498;2023-07-09T00:59:12;8.20;;;4.32;;
57441;SDS011;43284;47.042;15.498;2023-07-09T01:01:43;8.75;;;5.07;;
57441;SDS011;43284;47.042;15.498;2023-07-09T01:04:12;11.25;;;5.22;;
57441;SDS011;43284;47.042;15.498;2023-07-09T01:06:48;8.88;;;4.82;;
57441;SDS011;43284;47.042;15.498;2023-07-09T01:09:19;9.23;;;4.70;;
57441;SDS011;43284;47.042;15.498;2023-07-09T01:11:46;9.00;;;5.20;;
57441;SDS011;43284;47.042;15.498;2023-07-09T01:14:13;8.65;;;4.97;;
57441;SDS011;43284;47.042;15.498;2023-07-09T01:16:46;10.45;;;4.97;;
57441;SDS011;43284;47.042;15.498;2023-07-09T01:19:22;8.45;;;4.70;;
57441;SDS011;43284;47.042;15.498;2023-07-09T01:21:52;10.70;;;4.65;;
57441;SDS011;43284;47.042;15.498;2023-07-09T01:27:30;9.50;;;5.10;;
57441;SDS011;43284;47.042;15.498;2023-07-09T01:30:03;9.77;;;5.22;;
57441;SDS011;43284;47.042;15.498;2023-07-09T01:32:32;8.63;;;4.68;;
57441;SDS011;43284;47.042;15.498;2023-07-09T01:34:59;7.07;;;4.50;;
57441;SDS011;43284;47.042;15.498;2023-07-09T01:37:30;9.60;;;4.47;;
57441;SDS011;43284;47.042;15.498;2023-07-09T01:39:56;6.65;;;4.47;;
57441;SDS011;43284;47.042;15.498;2023-07-09T01:42:22;8.40;;;5.25;;
57441;SDS011;43284;47.042;15.498;2023-07-09T01:44:51;9.10;;;4.70;;
57441;SDS011;43284;47.042;15.498;2023-07-09T01:47:18;7.47;;;4.13;;
57441;SDS011;43284;47.042;15.498;2023-07-09T01:49:44;8.55;;;4.40;;
57441;SDS011;43284;47.042;15.498;2023-07-09T01:52:11;11.18;;;4.97;;
57441;SDS011;43284;47.042;15.498;2023-07-09T01:54:39;7.50;;;4.25;;
57441;SDS011;43284;47.042;15.498;2023-07-09T01:57:21;8.57;;;5.22;;
57441;SDS011;43284;47.042;15.498;2023-07-09T02:00:03;11.65;;;4.70;;
57441;SDS011;43284;47.042;15.498;2023-07-09T02:02:38;11.93;;;4.78;;
57441;SDS011;43284;47.042;15.498;2023-07-09T02:05:08;12.25;;;5.50;;
57441;SDS011;43284;47.042;15.498;2023-07-09T02:07:35;9.85;;;4.65;;
57441;SDS011;43284;47.042;15.498;2023-07-09T02:10:00;10.27;;;4.95;;
57441;SDS011;43284;47.042;15.498;2023-07-09T02:12:26;12.45;;;4.85;;
57441;SDS011;43284;47.042;15.498;2023-07-09T02:14:52;8.98;;;4.90;;
57441;SDS011;43284;47.042;15.498;2023-07-09T02:17:17;9.43;;;4.97;;
57441;SDS011;43284;47.042;15.498;2023-07-09T02:19:43;9.07;;;5.15;;
57441;SDS011;43284;47.042;15.498;2023-07-09T02:22:09;8.93;;;5.10;;
57441;SDS011;43284;47.042;15.498;2023-07-09T02:24:35;7.63;;;4.78;;
57441;SDS011;43284;47.042;15.498;2023-07-09T02:27:02;9.10;;;4.80;;
57441;SDS011;43284;47.042;15.498;2023-07-09T02:29:30;12.15;;;5.03;;
57441;SDS011;43284;47.042;15.498;2023-07-09T02:31:57;7.00;;;4.45;;
57441;SDS011;43284;47.042;15.498;2023-07-09T02:34:27;9.20;;;4.85;;
57441;SDS011;43284;47.042;15.498;2023-07-09T02:36:54;8.75;;;5.95;;
57441;SDS011;43284;47.042;15.498;2023-07-09T02:39:22;7.50;;;4.88;;
57441;SDS011;43284;47.042;15.498;2023-07-09T02:41:48;11.45;;;5.38;;
57441;SDS011;43284;47.042;15.498;2023-07-09T02:44:14;8.68;;;5.00;;
57441;SDS011;43284;47.042;15.498;2023-07-09T02:46:40;9.10;;;5.20;;
57441;SDS011;43284;47.042;15.498;2023-07-09T02:49:06;8.75;;;5.63;;
57441;SDS011;43284;47.042;15.498;2023-07-09T02:51:33;10.73;;;5.35;;
57441;SDS011;43284;47.042;15.498;2023-07-09T02:53:59;8.52;;;5.05;;
57441;SDS011;43284;47.042;15.498;2023-07-09T02:56:27;8.93;;;5.45;;
57441;SDS011;43284;47.042;15.498;2023-07-09T02:58:53;10.60;;;5.60;;
57441;SDS011;43284;47.042;15.498;2023-07-09T03:01:19;8.82;;;5.03;;
57441;SDS011;43284;47.042;15.498;2023-07-09T03:03:53;7.80;;;5.10;;
57441;SDS011;43284;47.042;15.498;2023-07-09T03:06:20;12.38;;;5.53;;
57441;SDS011;43284;47.042;15.498;2023-07-09T03:08:47;9.68;;;5.28;;
57441;SDS011;43284;47.042;15.498;2023-07-09T03:11:13;8.55;;;5.10;;
57441;SDS011;43284;47.042;15.498;2023-07-09T03:13:40;9.20;;;5.22;;
57441;SDS011;43284;47.042;15.498;2023-07-09T03:16:05;8.23;;;4.47;;
57441;SDS011;43284;47.042;15.498;2023-07-09T03:18:31;12.55;;;5.47;;
57441;SDS011;43284;47.042;15.498;2023-07-09T03:20:57;9.18;;;5.20;;
57441;SDS011;43284;47.042;15.498;2023-07-09T03:23:23;8.48;;;5.03;;
57441;SDS011;43284;47.042;15.498;2023-07-09T03:25:48;8.95;;;5.45;;
57441;SDS011;43284;47.042;15.498;2023-07-09T03:28:14;10.70;;;5.00;;
57441;SDS011;43284;47.042;15.498;2023-07-09T03:30:44;8.63;;;5.07;;
57441;SDS011;43284;47.042;15.498;2023-07-09T03:33:11;9.95;;;5.80;;
57441;SDS011;43284;47.042;15.498;2023-07-09T03:35:38;12.95;;;5.32;;
57441;SDS011;43284;47.042;15.498;2023-07-09T03:38:05;7.50;;;4.72;;
57441;SDS011;43284;47.042;15.498;2023-07-09T03:40:31;9.07;;;5.13;;
57441;SDS011;43284;47.042;15.498;2023-07-09T03:42:57;9.00;;;5.40;;
57441;SDS011;43284;47.042;15.498;2023-07-09T03:45:23;13.00;;;5.72;;
57441;SDS011;43284;47.042;15.498;2023-07-09T03:47:48;8.88;;;5.18;;
57441;SDS011;43284;47.042;15.498;2023-07-09T03:50:14;9.15;;;5.30;;
57441;SDS011;43284;47.042;15.498;2023-07-09T03:52:40;9.23;;;5.32;;
57441;SDS011;43284;47.042;15.498;2023-07-09T03:55:06;9.18;;;5.00;;
57441;SDS011;43284;47.042;15.498;2023-07-09T03:57:32;9.50;;;5.03;;
57441;SDS011;43284;47.042;15.498;2023-07-09T03:59:58;10.63;;;5.60;;
57441;SDS011;43284;47.042;15.498;2023-07-09T04:02:23;10.18;;;5.20;;
57441;SDS011;43284;47.042;15.498;2023-07-09T04:04:49;9.52;;;5.60;;
57441;SDS011;43284;47.042;15.498;2023-07-09T04:07:15;8.60;;;5.20;;
57441;SDS011;43284;47.042;15.498;2023-07-09T04:09:41;13.07;;;5.85;;
57441;SDS011;43284;47.042;15.498;2023-07-09T04:12:07;9.93;;;5.90;;
57441;SDS011;43284;47.042;15.498;2023-07-09T04:14:33;11.48;;;6.05;;
57441;SDS011;43284;47.042;15.498;2023-07-09T04:16:59;11.05;;;5.88;;
57441;SDS011;43284;47.042;15.498;2023-07-09T04:19:25;11.13;;;5.43;;
57441;SDS011;43284;47.042;15.498;2023-07-09T04:21:50;9.60;;;5.78;;
57441;SDS011;43284;47.042;15.498;2023-07-09T04:24:16;8.77;;;5.53;;
57441;SDS011;43284;47.042;15.498;2023-07-09T04:26:42;11.77;;;6.15;;
57441;SDS011;43284;47.042;15.498;2023-07-09T04:29:09;10.60;;;5.85;;
57441;SDS011;43284;47.042;15.498;2023-07-09T04:31:35;9.43;;;5.57;;
57441;SDS011;43284;47.042;15.498;2023-07-09T04:34:01;10.13;;;5.70;;
57441;SDS011;43284;47.042;15.498;2023-07-09T04:36:26;13.75;;;6.10;;
57441;SDS011;43284;47.042;15.498;2023-07-09T04:38:52;8.85;;;5.40;;
57441;SDS011;43284;47.042;15.498;2023-07-09T04:41:18;8.85;;;5.65;;
57441;SDS011;43284;47.042;15.498;2023-07-09T04:43:43;9.05;;;5.38;;
57441;SDS011;43284;47.042;15.498;2023-07-09T04:46:09;9.88;;;5.78;;
57441;SDS011;43284;47.042;15.498;2023-07-09T04:48:34;9.45;;;5.88;;
57441;SDS011;43284;47.042;15.498;2023-07-09T04:51:00;10.60;;;5.43;;
57441;SDS011;43284;47.042;15.498;2023-07-09T04:53:26;8.40;;;5.38;;
57441;SDS011;43284;47.042;15.498;2023-07-09T04:55:51;13.07;;;5.70;;
57441;SDS011;43284;47.042;15.498;2023-07-09T04:58:17;9.18;;;6.03;;
57441;SDS011;43284;47.042;15.498;2023-07-09T05:00:46;11.13;;;6.32;;
57441;SDS011;43284;47.042;15.498;2023-07-09T05:03:11;17.35;;;5.88;;
57441;SDS011;43284;47.042;15.498;2023-07-09T05:05:46;12.88;;;6.07;;
57441;SDS011;43284;47.042;15.498;2023-07-09T05:08:12;9.02;;;5.47;;
57441;SDS011;43284;47.042;15.498;2023-07-09T05:10:42;10.70;;;6.10;;
57441;SDS011;43284;47.042;15.498;2023-07-09T05:13:09;9.60;;;5.30;;
57441;SDS011;43284;47.042;15.498;2023-07-09T05:15:34;9.70;;;5.78;;
57441;SDS011;43284;47.042;15.498;2023-07-09T05:18:00;11.23;;;6.25;;
57441;SDS011;43284;47.042;15.498;2023-07-09T05:20:26;12.85;;;5.85;;
57441;SDS011;43284;47.042;15.498;2023-07-09T05:22:51;16.15;;;6.20;;
57441;SDS011;43284;47.042;15.498;2023-07-09T05:25:17;10.10;;;5.85;;
57441;SDS011;43284;47.042;15.498;2023-07-09T05:27:44;12.63;;;6.32;;
57441;SDS011;43284;47.042;15.498;2023-07-09T05:30:10;13.10;;;5.63;;
57441;SDS011;43284;47.042;15.498;2023-07-09T05:32:36;11.35;;;6.68;;
57441;SDS011;43284;47.042;15.498;2023-07-09T05:35:02;9.45;;;5.82;;
57441;SDS011;43284;47.042;15.498;2023-07-09T05:37:28;9.88;;;5.57;;
57441;SDS011;43284;47.042;15.498;2023-07-09T05:39:54;9.93;;;6.22;;
57441;SDS011;43284;47.042;15.498;2023-07-09T05:42:20;9.77;;;5.93;;
57441;SDS011;43284;47.042;15.498;2023-07-09T05:44:45;13.07;;;6.00;;
57441;SDS011;43284;47.042;15.498;2023-07-09T05:47:11;11.40;;;6.00;;
57441;SDS011;43284;47.042;15.498;2023-07-09T05:49:37;13.80;;;6.57;;
57441;SDS011;43284;47.042;15.498;2023-07-09T05:52:03;11.05;;;5.95;;
57441;SDS011;43284;47.042;15.498;2023-07-09T05:54:29;9.77;;;5.65;;
57441;SDS011;43284;47.042;15.498;2023-07-09T05:56:54;9.05;;;5.55;;
57441;SDS011;43284;47.042;15.498;2023-07-09T05:59:20;10.23;;;6.18;;
57441;SDS011;43284;47.042;15.498;2023-07-09T06:01:45;11.38;;;6.38;;
57441;SDS011;43284;47.042;15.498;2023-07-09T06:04:11;11.32;;;6.05;;
57441;SDS011;43284;47.042;15.498;2023-07-09T06:06:39;12.63;;;5.97;;
57441;SDS011;43284;47.042;15.498;2023-07-09T06:09:06;9.15;;;5.50;;
57441;SDS011;43284;47.042;15.498;2023-07-09T06:11:33;15.38;;;6.07;;
57441;SDS011;43284;47.042;15.498;2023-07-09T06:13:59;13.50;;;6.57;;
57441;SDS011;43284;47.042;15.498;2023-07-09T06:16:27;10.73;;;6.28;;
57441;SDS011;43284;47.042;15.498;2023-07-09T06:18:52;22.88;;;6.57;;
57441;SDS011;43284;47.042;15.498;2023-07-09T06:21:18;10.85;;;5.93;;
57441;SDS011;43284;47.042;15.498;2023-07-09T06:23:45;10.68;;;6.05;;
57441;SDS011;43284;47.042;15.498;2023-07-09T06:26:11;11.52;;;6.05;;
57441;SDS011;43284;47.042;15.498;2023-07-09T06:28:37;10.95;;;6.32;;
57441;SDS011;43284;47.042;15.498;2023-07-09T06:31:03;12.88;;;7.00;;
57441;SDS011;43284;47.042;15.498;2023-07-09T06:33:29;12.15;;;6.30;;
57441;SDS011;43284;47.042;15.498;2023-07-09T06:35:59;11.18;;;5.97;;
57441;SDS011;43284;47.042;15.498;2023-07-09T06:38:26;10.35;;;6.60;;
57441;SDS011;43284;47.042;15.498;2023-07-09T06:40:53;11.05;;;6.80;;
57441;SDS011;43284;47.042;15.498;2023-07-09T06:43:19;10.98;;;6.70;;
57441;SDS011;43284;47.042;15.498;2023-07-09T06:45:52;11.85;;;6.72;;
57441;SDS011;43284;47.042;15.498;2023-07-09T06:48:20;12.50;;;7.20;;
57441;SDS011;43284;47.042;15.498;2023-07-09T06:50:45;11.55;;;6.78;;
57441;SDS011;43284;47.042;15.498;2023-07-09T06:53:12;10.52;;;6.05;;
57441;SDS011;43284;47.042;15.498;2023-07-09T06:55:37;11.20;;;6.90;;
57441;SDS011;43284;47.042;15.498;2023-07-09T06:58:03;12.20;;;6.70;;
57441;SDS011;43284;47.042;15.498;2023-07-09T07:00:29;11.35;;;6.40;;
57441;SDS011;43284;47.042;15.498;2023-07-09T07:02:54;11.40;;;6.38;;
57441;SDS011;43284;47.042;15.498;2023-07-09T07:05:23;12.48;;;6.60;;
57441;SDS011;43284;47.042;15.498;2023-07-09T07:07:48;14.02;;;6.53;;
57441;SDS011;43284;47.042;15.498;2023-07-09T07:10:14;11.18;;;6.50;;
57441;SDS011;43284;47.042;15.498;2023-07-09T07:12:43;12.82;;;6.35;;
57441;SDS011;43284;47.042;15.498;2023-07-09T07:15:11;11.57;;;6.35;;
57441;SDS011;43284;47.042;15.498;2023-07-09T07:17:38;12.93;;;7.32;;
57441;SDS011;43284;47.042;15.498;2023-07-09T07:20:04;11.60;;;6.05;;
57441;SDS011;43284;47.042;15.498;2023-07-09T07:22:31;12.65;;;6.97;;
57441;SDS011;43284;47.042;15.498;2023-07-09T07:24:56;11.02;;;6.50;;
57441;SDS011;43284;47.042;15.498;2023-07-09T07:27:22;10.68;;;6.07;;
57441;SDS011;43284;47.042;15.498;2023-07-09T07:29:47;10.35;;;6.25;;
57441;SDS011;43284;47.042;15.498;2023-07-09T07:32:13;11.30;;;6.28;;
57441;SDS011;43284;47.042;15.498;2023-07-09T07:34:38;12.50;;;6.25;;
57441;SDS011;43284;47.042;15.498;2023-07-09T07:37:04;13.13;;;6.68;;
57441;SDS011;43284;47.042;15.498;2023-07-09T07:39:29;11.00;;;6.22;;
57441;SDS011;43284;47.042;15.498;2023-07-09T07:41:55;12.57;;;6.63;;
57441;SDS011;43284;47.042;15.498;2023-07-09T07:44:21;10.32;;;6.20;;
57441;SDS011;43284;47.042;15.498;2023-07-09T07:46:47;11.68;;;6.10;;
57441;SDS011;43284;47.042;15.498;2023-07-09T07:49:12;15.57;;;6.53;;
57441;SDS011;43284;47.042;15.498;2023-07-09T07:51:38;10.48;;;6.20;;
57441;SDS011;43284;47.042;15.498;2023-07-09T07:54:04;10.23;;;6.72;;
57441;SDS011;43284;47.042;15.498;2023-07-09T07:56:31;10.85;;;6.43;;
57441;SDS011;43284;47.042;15.498;2023-07-09T07:58:56;10.05;;;5.90;;
57441;SDS011;43284;47.042;15.498;2023-07-09T08:01:22;10.38;;;5.95;;
57441;SDS011;43284;47.042;15.498;2023-07-09T08:03:47;11.00;;;6.30;;
57441;SDS011;43284;47.042;15.498;2023-07-09T08:06:13;11.10;;;6.45;;
57441;SDS011;43284;47.042;15.498;2023-07-09T08:08:38;9.77;;;5.47;;
57441;SDS011;43284;47.042;15.498;2023-07-09T08:11:05;10.27;;;6.93;;
57441;SDS011;43284;47.042;15.498;2023-07-09T08:13:35;9.75;;;5.75;;
57441;SDS011;43284;47.042;15.498;2023-07-09T08:16:03;12.02;;;6.55;;
57441;SDS011;43284;47.042;15.498;2023-07-09T08:18:32;9.15;;;5.82;;
57441;SDS011;43284;47.042;15.498;2023-07-09T08:20:58;8.85;;;5.75;;
57441;SDS011;43284;47.042;15.498;2023-07-09T08:23:26;10.60;;;6.20;;
57441;SDS011;43284;47.042;15.498;2023-07-09T08:25:55;11.68;;;6.63;;
57441;SDS011;43284;47.042;15.498;2023-07-09T08:28:22;10.23;;;6.63;;
57441;SDS011;43284;47.042;15.498;2023-07-09T08:30:48;12.05;;;6.35;;
57441;SDS011;43284;47.042;15.498;2023-07-09T08:33:16;9.63;;;5.85;;
57441;SDS011;43284;47.042;15.498;2023-07-09T08:35:42;8.75;;;5.90;;
57441;SDS011;43284;47.042;15.498;2023-07-09T08:38:08;12.40;;;6.47;;
57441;SDS011;43284;47.042;15.498;2023-07-09T08:40:35;12.57;;;6.90;;
57441;SDS011;43284;47.042;15.498;2023-07-09T08:43:06;10.75;;;6.85;;
57441;SDS011;43284;47.042;15.498;2023-07-09T08:45:57;13.40;;;6.53;;
57441;SDS011;43284;47.042;15.498;2023-07-09T08:48:33;8.85;;;5.90;;
57441;SDS011;43284;47.042;15.498;2023-07-09T08:51:12;11.30;;;6.30;;
57441;SDS011;43284;47.042;15.498;2023-07-09T08:53:48;9.85;;;6.30;;
57441;SDS011;43284;47.042;15.498;2023-07-09T08:56:16;9.20;;;6.13;;
57441;SDS011;43284;47.042;15.498;2023-07-09T08:58:43;9.30;;;6.07;;
57441;SDS011;43284;47.042;15.498;2023-07-09T09:01:16;10.07;;;5.28;;
57441;SDS011;43284;47.042;15.498;2023-07-09T09:03:56;10.95;;;6.47;;
57441;SDS011;43284;47.042;15.498;2023-07-09T09:06:27;9.45;;;5.88;;
57441;SDS011;43284;47.042;15.498;2023-07-09T09:08:58;12.05;;;6.38;;
57441;SDS011;43284;47.042;15.498;2023-07-09T09:11:31;12.23;;;6.47;;
57441;SDS011;43284;47.042;15.498;2023-07-09T09:14:06;10.20;;;5.97;;
57441;SDS011;43284;47.042;15.498;2023-07-09T09:16:44;11.48;;;5.88;;
57441;SDS011;43284;47.042;15.498;2023-07-09T09:22:25;12.60;;;5.30;;
57441;SDS011;43284;47.042;15.498;2023-07-09T09:27:45;11.40;;;6.30;;
57441;SDS011;43284;47.042;15.498;2023-07-09T09:30:11;10.70;;;6.07;;
57441;SDS011;43284;47.042;15.498;2023-07-09T09:32:42;10.50;;;5.93;;
57441;SDS011;43284;47.042;15.498;2023-07-09T09:35:19;10.50;;;6.05;;
57441;SDS011;43284;47.042;15.498;2023-07-09T09:37:51;8.48;;;5.90;;
57441;SDS011;43284;47.042;15.498;2023-07-09T09:40:21;9.40;;;5.90;;
57441;SDS011;43284;47.042;15.498;2023-07-09T09:42:49;8.73;;;5.43;;
57441;SDS011;43284;47.042;15.498;2023-07-09T09:45:18;12.88;;;5.60;;
57441;SDS011;43284;47.042;15.498;2023-07-09T09:47:46;10.07;;;5.65;;
57441;SDS011;43284;47.042;15.498;2023-07-09T09:50:13;12.32;;;5.65;;
57441;SDS011;43284;47.042;15.498;2023-07-09T09:52:40;13.35;;;5.60;;
57441;SDS011;43284;47.042;15.498;2023-07-09T09:55:16;10.48;;;5.50;;
57441;SDS011;43284;47.042;15.498;2023-07-09T09:57:51;7.65;;;5.28;;
57441;SDS011;43284;47.042;15.498;2023-07-09T10:00:18;8.30;;;5.68;;
57441;SDS011;43284;47.042;15.498;2023-07-09T10:02:50;11.15;;;5.10;;
57441;SDS011;43284;47.042;15.498;2023-07-09T10:05:16;9.48;;;5.72;;
57441;SDS011;43284;47.042;15.498;2023-07-09T10:07:47;8.52;;;4.93;;
57441;SDS011;43284;47.042;15.498;2023-07-09T10:10:40;9.32;;;4.55;;
57441;SDS011;43284;47.042;15.498;2023-07-09T10:13:17;7.70;;;4.90;;
57441;SDS011;43284;47.042;15.498;2023-07-09T10:16:01;8.65;;;4.80;;
57441;SDS011;43284;47.042;15.498;2023-07-09T10:21:11;11.02;;;4.78;;
57441;SDS011;43284;47.042;15.498;2023-07-09T10:24:07;11.00;;;5.05;;
57441;SDS011;43284;47.042;15.498;2023-07-09T10:26:39;6.63;;;4.88;;
57441;SDS011;43284;47.042;15.498;2023-07-09T10:32:01;8.85;;;4.63;;
57441;SDS011;43284;47.042;15.498;2023-07-09T10:34:53;7.43;;;4.57;;
57441;SDS011;43284;47.042;15.498;2023-07-09T10:40:25;8.63;;;5.18;;
57441;SDS011;43284;47.042;15.498;2023-07-09T10:42:59;9.30;;;5.10;;
57441;SDS011;43284;47.042;15.498;2023-07-09T10:45:47;8.65;;;4.95;;
57441;SDS011;43284;47.042;15.498;2023-07-09T10:48:18;8.57;;;5.28;;
57441;SDS011;43284;47.042;15.498;2023-07-09T10:50:56;8.10;;;5.20;;
57441;SDS011;43284;47.042;15.498;2023-07-09T10:53:30;7.65;;;5.15;;
57441;SDS011;43284;47.042;15.498;2023-07-09T10:56:05;8.40;;;5.28;;
57441;SDS011;43284;47.042;15.498;2023-07-09T10:58:40;9.52;;;5.18;;
57441;SDS011;43284;47.042;15.498;2023-07-09T11:01:16;9.52;;;5.10;;
57441;SDS011;43284;47.042;15.498;2023-07-09T11:03:51;6.82;;;4.43;;
57441;SDS011;43284;47.042;15.498;2023-07-09T11:06:40;7.63;;;4.40;;
57441;SDS011;43284;47.042;15.498;2023-07-09T11:11:56;7.80;;;4.47;;
57441;SDS011;43284;47.042;15.498;2023-07-09T11:14:33;7.22;;;4.82;;
57441;SDS011;43284;47.042;15.498;2023-07-09T11:17:03;7.20;;;4.80;;
57441;SDS011;43284;47.042;15.498;2023-07-09T11:19:31;7.63;;;4.72;;
57441;SDS011;43284;47.042;15.498;2023-07-09T11:21:57;9.85;;;4.43;;
57441;SDS011;43284;47.042;15.498;2023-07-09T11:24:46;7.38;;;4.88;;
57441;SDS011;43284;47.042;15.498;2023-07-09T11:27:20;9.07;;;4.13;;
57441;SDS011;43284;47.042;15.498;2023-07-09T11:30:00;7.40;;;4.07;;
57441;SDS011;43284;47.042;15.498;2023-07-09T11:32:46;7.75;;;4.38;;
57441;SDS011;43284;47.042;15.498;2023-07-09T11:35:26;6.45;;;4.03;;
57441;SDS011;43284;47.042;15.498;2023-07-09T11:37:53;6.97;;;4.18;;
57441;SDS011;43284;47.042;15.498;2023-07-09T11:40:19;6.40;;;4.03;;
57441;SDS011;43284;47.042;15.498;2023-07-09T11:42:53;9.98;;;4.18;;
57441;SDS011;43284;47.042;15.498;2023-07-09T11:45:22;7.53;;;3.85;;
57441;SDS011;43284;47.042;15.498;2023-07-09T11:50:38;6.60;;;4.15;;
57441;SDS011;43284;47.042;15.498;2023-07-09T11:55:54;7.40;;;4.60;;
57441;SDS011;43284;47.042;15.498;2023-07-09T11:58:20;12.88;;;4.50;;
57441;SDS011;43284;47.042;15.498;2023-07-09T12:00:46;6.70;;;4.10;;
57441;SDS011;43284;47.042;15.498;2023-07-09T12:03:15;6.93;;;4.10;;
57441;SDS011;43284;47.042;15.498;2023-07-09T12:08:49;9.45;;;4.03;;
57441;SDS011;43284;47.042;15.498;2023-07-09T12:11:22;6.40;;;4.38;;
57441;SDS011;43284;47.042;15.498;2023-07-09T12:14:02;6.90;;;4.47;;
57441;SDS011;43284;47.042;15.498;2023-07-09T12:16:32;6.20;;;4.35;;
57441;SDS011;43284;47.042;15.498;2023-07-09T12:19:00;6.68;;;3.95;;
57441;SDS011;43284;47.042;15.498;2023-07-09T12:21:26;6.70;;;3.97;;
57441;SDS011;43284;47.042;15.498;2023-07-09T12:23:52;6.68;;;4.70;;
57441;SDS011;43284;47.042;15.498;2023-07-09T12:26:19;7.13;;;4.00;;
57441;SDS011;43284;47.042;15.498;2023-07-09T12:28:56;6.10;;;4.20;;
57441;SDS011;43284;47.042;15.498;2023-07-09T12:31:26;8.50;;;4.65;;
57441;SDS011;43284;47.042;15.498;2023-07-09T12:33:54;6.25;;;4.40;;
57441;SDS011;43284;47.042;15.498;2023-07-09T12:36:20;7.63;;;4.72;;
57441;SDS011;43284;47.042;15.498;2023-07-09T12:38:49;5.60;;;4.28;;
57441;SDS011;43284;47.042;15.498;2023-07-09T12:41:19;6.78;;;4.32;;
57441;SDS011;43284;47.042;15.498;2023-07-09T12:43:48;6.18;;;4.20;;
57441;SDS011;43284;47.042;15.498;2023-07-09T12:46:15;8.05;;;4.45;;
57441;SDS011;43284;47.042;15.498;2023-07-09T12:48:41;6.28;;;4.55;;
57441;SDS011;43284;47.042;15.498;2023-07-09T12:51:08;7.13;;;4.50;;
57441;SDS011;43284;47.042;15.498;2023-07-09T12:53:35;9.93;;;4.35;;
57441;SDS011;43284;47.042;15.498;2023-07-09T12:56:02;8.65;;;4.47;;
57441;SDS011;43284;47.042;15.498;2023-07-09T12:58:29;7.43;;;4.05;;
57441;SDS011;43284;47.042;15.498;2023-07-09T13:00:56;5.95;;;4.13;;
57441;SDS011;43284;47.042;15.498;2023-07-09T13:03:27;7.13;;;4.38;;
57441;SDS011;43284;47.042;15.498;2023-07-09T13:08:28;6.75;;;4.43;;
57441;SDS011;43284;47.042;15.498;2023-07-09T13:10:55;7.13;;;4.35;;
57441;SDS011;43284;47.042;15.498;2023-07-09T13:13:22;6.28;;;3.92;;
57441;SDS011;43284;47.042;15.498;2023-07-09T13:15:59;10.05;;;4.50;;
57441;SDS011;43284;47.042;15.498;2023-07-09T13:18:26;6.60;;;4.28;;
57441;SDS011;43284;47.042;15.498;2023-07-09T13:20:54;7.75;;;4.65;;
57441;SDS011;43284;47.042;15.498;2023-07-09T13:23:27;7.20;;;4.55;;
57441;SDS011;43284;47.042;15.498;2023-07-09T13:25:56;6.63;;;4.00;;
57441;SDS011;43284;47.042;15.498;2023-07-09T13:28:24;9.05;;;4.45;;
57441;SDS011;43284;47.042;15.498;2023-07-09T13:30:58;6.60;;;4.82;;
57441;SDS011;43284;47.042;15.498;2023-07-09T13:33:26;7.05;;;4.25;;
57441;SDS011;43284;47.042;15.498;2023-07-09T13:35:52;8.32;;;4.28;;
57441;SDS011;43284;47.042;15.498;2023-07-09T13:38:20;9.07;;;4.70;;
57441;SDS011;43284;47.042;15.498;2023-07-09T13:40:48;6.25;;;4.50;;
57441;SDS011;43284;47.042;15.498;2023-07-09T13:43:35;10.02;;;5.10;;
57441;SDS011;43284;47.042;15.498;2023-07-09T13:46:06;8.02;;;4.38;;
57441;SDS011;43284;47.042;15.498;2023-07-09T13:48:33;6.95;;;4.57;;
57441;SDS011;43284;47.042;15.498;2023-07-09T13:51:00;5.70;;;4.43;;
57441;SDS011;43284;47.042;15.498;2023-07-09T13:53:30;9.48;;;4.63;;
57441;SDS011;43284;47.042;15.498;2023-07-09T13:55:56;6.05;;;4.13;;
57441;SDS011;43284;47.042;15.498;2023-07-09T13:58:23;8.25;;;4.30;;
57441;SDS011;43284;47.042;15.498;2023-07-09T14:00:50;8.18;;;4.60;;
57441;SDS011;43284;47.042;15.498;2023-07-09T14:03:25;5.85;;;4.18;;
57441;SDS011;43284;47.042;15.498;2023-07-09T14:05:53;7.78;;;4.32;;
57441;SDS011;43284;47.042;15.498;2023-07-09T14:08:19;5.60;;;4.00;;
57441;SDS011;43284;47.042;15.498;2023-07-09T14:10:46;5.75;;;4.00;;
57441;SDS011;43284;47.042;15.498;2023-07-09T14:13:16;7.70;;;4.20;;
57441;SDS011;43284;47.042;15.498;2023-07-09T14:15:43;5.97;;;4.20;;
57441;SDS011;43284;47.042;15.498;2023-07-09T14:18:16;7.75;;;4.93;;
57441;SDS011;43284;47.042;15.498;2023-07-09T14:20:44;8.02;;;3.88;;
57441;SDS011;43284;47.042;15.498;2023-07-09T14:23:13;9.52;;;4.82;;
57441;SDS011;43284;47.042;15.498;2023-07-09T14:25:41;5.20;;;4.00;;
57441;SDS011;43284;47.042;15.498;2023-07-09T14:28:11;7.47;;;4.22;;
57441;SDS011;43284;47.042;15.498;2023-07-09T14:30:44;8.40;;;4.72;;
57441;SDS011;43284;47.042;15.498;2023-07-09T14:33:13;7.72;;;3.90;;
57441;SDS011;43284;47.042;15.498;2023-07-09T14:35:41;7.78;;;4.32;;
57441;SDS011;43284;47.042;15.498;2023-07-09T14:38:20;6.15;;;4.45;;
57441;SDS011;43284;47.042;15.498;2023-07-09T14:40:51;5.72;;;4.03;;
57441;SDS011;43284;47.042;15.498;2023-07-09T14:43:19;7.78;;;4.10;;
57441;SDS011;43284;47.042;15.498;2023-07-09T14:45:44;6.18;;;4.25;;
57441;SDS011;43284;47.042;15.498;2023-07-09T14:48:28;7.40;;;4.13;;
57441;SDS011;43284;47.042;15.498;2023-07-09T14:53:21;6.13;;;3.67;;
57441;SDS011;43284;47.042;15.498;2023-07-09T14:55:49;7.43;;;4.47;;
57441;SDS011;43284;47.042;15.498;2023-07-09T14:58:19;7.07;;;4.28;;
57441;SDS011;43284;47.042;15.498;2023-07-09T15:00:46;6.15;;;3.90;;
57441;SDS011;43284;47.042;15.498;2023-07-09T15:03:18;6.97;;;4.43;;
57441;SDS011;43284;47.042;15.498;2023-07-09T15:05:48;6.00;;;3.88;;
57441;SDS011;43284;47.042;15.498;2023-07-09T15:08:15;6.88;;;4.20;;
57441;SDS011;43284;47.042;15.498;2023-07-09T15:10:43;8.10;;;4.13;;
57441;SDS011;43284;47.042;15.498;2023-07-09T15:13:18;6.70;;;4.22;;
57441;SDS011;43284;47.042;15.498;2023-07-09T15:15:50;5.88;;;4.63;;
57441;SDS011;43284;47.042;15.498;2023-07-09T15:18:16;5.80;;;4.30;;